createdAt,value
2023-03-01T00:00:42.119Z,4.07
2023-03-01T00:03:08.703Z,3.13
2023-03-01T00:05:39.570Z,4.15
2023-03-01T00:08:08.746Z,4.55
2023-03-01T00:10:35.295Z,3.60
2023-03-01T00:13:02.160Z,3.55
2023-03-01T00:15:28.929Z,3.72
2023-03-01T00:17:55.517Z,4.72
2023-03-01T00:20:22.081Z,3.13
2023-03-01T00:22:49.021Z,2.72
2023-03-01T00:25:15.539Z,3.20
2023-03-01T00:27:42.373Z,5.18
2023-03-01T00:30:10.849Z,3.95
2023-03-01T00:32:37.434Z,3.20
2023-03-01T00:35:06.532Z,4.00
2023-03-01T00:37:33.136Z,4.65
2023-03-01T00:39:59.880Z,3.05
2023-03-01T00:42:26.443Z,4.82
2023-03-01T00:44:52.941Z,3.40
2023-03-01T00:47:19.497Z,4.13
2023-03-01T00:49:47.194Z,2.42
2023-03-01T00:52:13.712Z,4.70
2023-03-01T00:54:40.178Z,3.65
2023-03-01T00:57:06.709Z,2.83
2023-03-01T00:59:33.524Z,4.45
2023-03-01T01:02:00.089Z,3.63
2023-03-01T01:04:26.644Z,2.60
2023-03-01T01:06:53.161Z,1.98
2023-03-01T01:09:19.722Z,2.85
2023-03-01T01:11:48.849Z,2.47
2023-03-01T01:14:16.224Z,2.67
2023-03-01T01:16:43.316Z,2.38
2023-03-01T01:19:11.775Z,1.92
2023-03-01T01:21:38.397Z,2.88
2023-03-01T01:24:05.555Z,2.35
2023-03-01T01:26:34.438Z,2.85
2023-03-01T01:29:02.886Z,2.80
2023-03-01T01:31:30.365Z,4.28
2023-03-01T01:33:59.366Z,2.63
2023-03-01T01:36:25.918Z,3.08
2023-03-01T01:38:52.772Z,2.95
2023-03-01T01:41:20.584Z,2.58
2023-03-01T01:44:15.359Z,2.85
2023-03-01T01:46:45.580Z,2.70
2023-03-01T01:49:35.419Z,4.10
2023-03-01T01:52:10.632Z,2.83
2023-03-01T01:54:43.312Z,4.15
2023-03-01T01:57:15.881Z,6.18
2023-03-01T01:59:46.657Z,4.68
2023-03-01T02:02:14.556Z,3.53
2023-03-01T02:04:41.566Z,2.58
2023-03-01T02:07:20.974Z,3.00
2023-03-01T02:09:52.700Z,3.78
2023-03-01T02:12:23.874Z,4.45
2023-03-01T02:14:50.508Z,3.58
2023-03-01T02:17:19.909Z,5.97
2023-03-01T02:19:58.640Z,4.05
2023-03-01T02:22:28.817Z,3.33
2023-03-01T02:25:16.329Z,3.03
2023-03-01T02:28:04.177Z,4.50
2023-03-01T02:30:32.054Z,4.53
2023-03-01T02:33:00.835Z,3.15
2023-03-01T02:35:27.688Z,4.22
2023-03-01T02:37:54.362Z,3.80
2023-03-01T02:40:21.184Z,3.35
2023-03-01T02:42:55.250Z,5.55
2023-03-01T02:45:22.159Z,3.70
2023-03-01T02:47:48.755Z,4.85
2023-03-01T02:50:30.697Z,5.07
2023-03-01T02:53:33.546Z,9.15
2023-03-01T02:56:00.318Z,5.80
2023-03-01T02:58:26.981Z,4.78
2023-03-01T03:00:54.419Z,4.38
2023-03-01T03:03:22.558Z,4.65
2023-03-01T03:05:49.332Z,4.45
2023-03-01T03:08:16.523Z,5.07
2023-03-01T03:10:43.504Z,3.63
2023-03-01T03:13:14.687Z,5.30
2023-03-01T03:15:43.673Z,4.93
2023-03-01T03:18:14.025Z,4.82
2023-03-01T03:20:43.111Z,4.25
2023-03-01T03:23:10.082Z,4.22
2023-03-01T03:25:36.862Z,7.32
2023-03-01T03:28:03.755Z,6.53
2023-03-01T03:30:32.403Z,7.78
2023-03-01T03:32:59.993Z,9.82
2023-03-01T03:35:30.971Z,4.10
2023-03-01T03:38:04.782Z,5.80
2023-03-01T03:40:32.928Z,6.75
2023-03-01T03:42:59.661Z,3.75
2023-03-01T03:45:26.817Z,5.03
2023-03-01T03:47:53.597Z,5.97
2023-03-01T03:50:21.327Z,5.97
2023-03-01T03:52:47.915Z,6.75
2023-03-01T03:55:14.465Z,6.20
2023-03-01T03:57:42.542Z,7.18
2023-03-01T04:00:12.201Z,5.82
2023-03-01T04:02:39.619Z,4.70
2023-03-01T04:05:08.036Z,7.28
2023-03-01T04:07:35.955Z,4.63
2023-03-01T04:10:07.457Z,7.38
2023-03-01T04:12:35.129Z,6.90
2023-03-01T04:15:06.705Z,7.50
2023-03-01T04:17:33.243Z,11.80
2023-03-01T04:19:59.999Z,7.22
2023-03-01T04:22:26.563Z,6.78
2023-03-01T04:24:53.040Z,7.70
2023-03-01T04:27:19.802Z,5.63
2023-03-01T04:29:46.299Z,6.85
2023-03-01T04:32:13.048Z,5.88
2023-03-01T04:34:39.690Z,8.35
2023-03-01T04:37:06.190Z,6.40
2023-03-01T04:39:32.699Z,10.18
2023-03-01T04:41:59.429Z,12.20
2023-03-01T04:44:26.332Z,6.35
2023-03-01T04:46:52.822Z,11.77
2023-03-01T04:49:19.318Z,7.85
2023-03-01T04:51:45.824Z,8.45
2023-03-01T04:54:12.324Z,6.45
2023-03-01T04:56:38.837Z,9.88
2023-03-01T04:59:05.375Z,5.53
2023-03-01T05:01:32.193Z,7.43
2023-03-01T05:03:58.946Z,10.15
2023-03-01T05:06:25.868Z,8.02
2023-03-01T05:08:52.547Z,10.80
2023-03-01T05:11:19.373Z,6.80
2023-03-01T05:13:45.942Z,7.85
2023-03-01T05:16:13.188Z,6.95
2023-03-01T05:18:41.087Z,9.10
2023-03-01T05:21:10.895Z,12.27
2023-03-01T05:23:37.920Z,10.23
2023-03-01T05:26:09.384Z,9.73
2023-03-01T05:28:38.220Z,9.07
2023-03-01T05:31:05.395Z,13.20
2023-03-01T05:33:32.203Z,11.25
2023-03-01T05:36:01.275Z,6.40
2023-03-01T05:38:27.894Z,12.55
2023-03-01T05:40:54.437Z,11.48
2023-03-01T05:43:20.975Z,11.10
2023-03-01T05:45:47.587Z,9.60
2023-03-01T05:48:14.790Z,8.05
2023-03-01T05:50:43.829Z,11.88
2023-03-01T05:53:17.527Z,8.75
2023-03-01T05:55:45.123Z,8.02
2023-03-01T05:58:14.292Z,9.43
2023-03-01T06:00:41.910Z,9.55
2023-03-01T06:03:11.781Z,10.50
2023-03-01T06:05:38.678Z,14.02
2023-03-01T06:08:05.282Z,11.82
2023-03-01T06:10:31.872Z,14.35
2023-03-01T06:12:58.482Z,14.15
2023-03-01T06:15:26.800Z,12.65
2023-03-01T06:17:56.116Z,12.75
2023-03-01T06:20:26.372Z,12.15
2023-03-01T06:22:53.236Z,16.23
2023-03-01T06:25:23.705Z,16.73
2023-03-01T06:27:50.387Z,15.40
2023-03-01T06:30:19.264Z,12.52
2023-03-01T06:32:45.862Z,19.60
2023-03-01T06:35:15.367Z,16.13
2023-03-01T06:37:42.279Z,13.60
2023-03-01T06:40:10.441Z,18.80
2023-03-01T06:42:37.126Z,13.43
2023-03-01T06:45:06.372Z,19.45
2023-03-01T06:47:34.361Z,16.95
2023-03-01T06:50:02.460Z,16.55
2023-03-01T06:52:29.128Z,16.10
2023-03-01T06:54:55.760Z,20.42
2023-03-01T06:57:22.400Z,12.95
2023-03-01T06:59:48.977Z,15.48
2023-03-01T07:02:16.127Z,13.27
2023-03-01T07:04:44.190Z,14.50
2023-03-01T07:07:10.808Z,18.13
2023-03-01T07:09:37.343Z,11.93
2023-03-01T07:12:04.312Z,14.15
2023-03-01T07:14:30.776Z,15.40
2023-03-01T07:16:57.585Z,13.13
2023-03-01T07:19:24.489Z,10.68
2023-03-01T07:21:51.022Z,12.52
2023-03-01T07:24:17.602Z,12.35
2023-03-01T07:26:44.288Z,16.15
2023-03-01T07:29:11.589Z,13.40
2023-03-01T07:31:38.171Z,10.35
2023-03-01T07:34:04.684Z,9.63
2023-03-01T07:36:31.982Z,11.95
2023-03-01T07:38:58.747Z,11.85
2023-03-01T07:41:25.945Z,15.95
2023-03-01T07:43:52.529Z,11.63
2023-03-01T07:46:19.403Z,8.13
2023-03-01T07:48:45.981Z,8.10
2023-03-01T07:51:12.933Z,12.68
2023-03-01T07:53:39.656Z,12.32
2023-03-01T07:56:09.410Z,12.98
2023-03-01T07:58:37.485Z,11.30
2023-03-01T08:01:09.288Z,11.05
2023-03-01T08:03:37.153Z,10.68
2023-03-01T08:06:23.301Z,8.35
2023-03-01T08:08:52.288Z,11.38
2023-03-01T08:11:18.879Z,10.57
2023-03-01T08:13:51.277Z,10.07
2023-03-01T08:16:18.152Z,12.00
2023-03-01T08:18:44.777Z,10.88
2023-03-01T08:21:16.465Z,6.60
2023-03-01T08:26:18.855Z,7.90
2023-03-01T08:28:46.103Z,8.40
2023-03-01T08:31:21.643Z,12.43
2023-03-01T08:33:50.668Z,9.70
2023-03-01T08:36:18.148Z,9.45
2023-03-01T08:38:44.935Z,8.07
2023-03-01T08:41:11.523Z,8.50
2023-03-01T08:43:38.097Z,11.27
2023-03-01T08:46:04.860Z,6.43
2023-03-01T08:48:31.463Z,14.35
2023-03-01T08:50:58.130Z,8.53
2023-03-01T08:53:24.770Z,8.57
2023-03-01T08:55:51.319Z,5.63
2023-03-01T08:58:17.863Z,12.73
2023-03-01T09:00:44.481Z,9.30
2023-03-01T09:03:11.090Z,6.30
2023-03-01T09:05:37.613Z,9.10
2023-03-01T09:08:05.208Z,4.75
2023-03-01T09:10:31.958Z,8.32
2023-03-01T09:12:58.530Z,6.03
2023-03-01T09:15:25.056Z,6.15
2023-03-01T09:17:51.626Z,6.65
2023-03-01T09:20:18.242Z,6.32
2023-03-01T09:22:44.833Z,4.90
2023-03-01T09:25:11.397Z,10.57
2023-03-01T09:27:37.954Z,6.10
2023-03-01T09:30:05.492Z,12.95
2023-03-01T09:32:32.568Z,6.07
2023-03-01T09:34:59.143Z,8.43
2023-03-01T09:37:25.676Z,6.22
2023-03-01T09:39:52.241Z,8.32
2023-03-01T09:42:19.009Z,10.82
2023-03-01T09:44:58.833Z,5.88
2023-03-01T09:47:29.922Z,4.70
2023-03-01T09:50:04.209Z,5.15
2023-03-01T09:52:41.182Z,4.00
2023-03-01T09:55:21.134Z,8.32
2023-03-01T09:58:00.425Z,4.68
2023-03-01T10:00:30.023Z,4.88
2023-03-01T10:03:23.172Z,7.60
2023-03-01T10:06:05.609Z,11.80
2023-03-01T10:08:57.380Z,14.57
2023-03-01T10:11:29.161Z,19.90
2023-03-01T10:14:32.888Z,29.15
2023-03-01T10:17:31.575Z,12.35
2023-03-01T10:20:15.926Z,10.77
2023-03-01T10:22:42.707Z,8.23
2023-03-01T10:25:14.131Z,8.95
2023-03-01T10:27:55.846Z,7.50
2023-03-01T10:33:23.794Z,6.53
2023-03-01T10:35:50.823Z,6.65
2023-03-01T10:38:19.738Z,5.35
2023-03-01T10:40:56.028Z,4.85
2023-03-01T10:43:22.876Z,4.43
2023-03-01T10:45:49.564Z,4.70
2023-03-01T10:48:34.341Z,8.10
2023-03-01T10:51:00.895Z,5.25
2023-03-01T10:53:34.671Z,8.32
2023-03-01T10:56:14.457Z,6.32
2023-03-01T10:58:57.750Z,7.78
2023-03-01T11:01:24.327Z,4.38
2023-03-01T11:04:24.064Z,5.75
2023-03-01T11:07:00.036Z,5.20
2023-03-01T11:09:26.713Z,5.65
2023-03-01T11:11:57.832Z,5.95
2023-03-01T11:14:33.386Z,3.33
2023-03-01T11:17:03.738Z,5.72
2023-03-01T11:19:30.736Z,6.28
2023-03-01T11:22:00.433Z,4.22
2023-03-01T11:25:09.318Z,4.78
2023-03-01T11:27:43.931Z,7.20
2023-03-01T11:30:14.377Z,3.72
2023-03-01T11:32:46.426Z,3.00
2023-03-01T11:35:21.466Z,4.53
2023-03-01T11:38:34.135Z,3.47
2023-03-01T11:41:13.060Z,5.20
2023-03-01T11:44:02.868Z,5.82
2023-03-01T11:46:32.447Z,4.65
2023-03-01T11:49:11.041Z,4.18
2023-03-01T11:51:49.679Z,4.20
2023-03-01T11:54:40.949Z,3.63
2023-03-01T11:57:19.656Z,5.30
2023-03-01T11:59:52.936Z,3.70
2023-03-01T12:02:19.523Z,2.72
2023-03-01T12:05:24.938Z,2.55
2023-03-01T12:08:31.978Z,4.80
2023-03-01T12:11:04.180Z,3.97
2023-03-01T12:13:33.776Z,3.78
2023-03-01T12:16:16.263Z,2.08
2023-03-01T12:19:06.789Z,2.35
2023-03-01T12:21:39.289Z,1.80
2023-03-01T12:24:11.987Z,2.75
2023-03-01T12:26:49.437Z,2.47
2023-03-01T12:29:26.975Z,1.75
2023-03-01T12:32:13.460Z,1.88
2023-03-01T12:34:46.108Z,1.65
2023-03-01T12:37:20.594Z,2.25
2023-03-01T12:39:47.187Z,2.60
2023-03-01T12:42:26.024Z,1.20
2023-03-01T12:45:08.407Z,1.27
2023-03-01T12:48:04.947Z,2.72
2023-03-01T12:50:43.695Z,1.73
2023-03-01T12:53:23.297Z,1.30
2023-03-01T12:55:51.422Z,2.85
2023-03-01T12:58:34.158Z,3.88
2023-03-01T13:01:12.320Z,3.17
2023-03-01T13:04:03.927Z,3.25
2023-03-01T13:06:43.607Z,4.70
2023-03-01T13:09:19.930Z,2.50
2023-03-01T13:11:46.630Z,1.48
2023-03-01T13:14:22.313Z,1.35
2023-03-01T13:16:50.457Z,2.25
2023-03-01T13:19:20.961Z,1.92
2023-03-01T13:21:49.350Z,1.83
2023-03-01T13:24:39.718Z,1.55
2023-03-01T13:27:11.961Z,0.63
2023-03-01T13:29:49.733Z,0.88
2023-03-01T13:32:37.796Z,2.58
2023-03-01T13:35:20.737Z,2.75
2023-03-01T13:37:47.816Z,1.52
2023-03-01T13:40:17.511Z,2.20
2023-03-01T13:42:56.176Z,4.72
2023-03-01T13:45:42.228Z,6.95
2023-03-01T13:48:16.152Z,3.70
2023-03-01T13:50:51.756Z,3.63
2023-03-01T13:53:22.425Z,6.22
2023-03-01T13:56:00.854Z,2.90
2023-03-01T13:58:33.792Z,4.38
2023-03-01T14:01:05.829Z,3.00
2023-03-01T14:03:35.827Z,3.13
2023-03-01T14:06:30.449Z,2.55
2023-03-01T14:09:11.459Z,4.22
2023-03-01T14:12:14.348Z,6.78
2023-03-01T14:14:53.261Z,4.95
2023-03-01T14:17:29.116Z,3.33
2023-03-01T14:19:58.946Z,4.35
2023-03-01T14:22:34.462Z,5.35
2023-03-01T14:25:04.371Z,3.72
2023-03-01T14:27:40.342Z,2.20
2023-03-01T14:30:31.161Z,4.18
2023-03-01T14:33:00.129Z,7.82
2023-03-01T14:35:30.826Z,2.10
2023-03-01T14:37:57.507Z,3.22
2023-03-01T14:40:31.099Z,4.28
2023-03-01T14:43:01.244Z,4.97
2023-03-01T14:45:29.908Z,3.30
2023-03-01T14:48:01.154Z,4.72
2023-03-01T14:50:31.010Z,5.45
2023-03-01T14:53:04.077Z,3.42
2023-03-01T14:55:34.720Z,5.32
2023-03-01T14:58:07.352Z,3.63
2023-03-01T15:00:35.717Z,6.45
2023-03-01T15:03:09.341Z,3.67
2023-03-01T15:05:36.750Z,4.85
2023-03-01T15:08:05.106Z,6.30
2023-03-01T15:10:35.716Z,4.47
2023-03-01T15:13:23.943Z,5.40
2023-03-01T15:15:53.111Z,4.88
2023-03-01T15:18:23.623Z,3.50
2023-03-01T15:20:52.020Z,4.50
2023-03-01T15:23:25.470Z,5.68
2023-03-01T15:25:54.314Z,6.47
2023-03-01T15:28:21.306Z,5.10
2023-03-01T15:30:56.885Z,2.97
2023-03-01T15:33:23.540Z,4.57
2023-03-01T15:35:54.817Z,2.53
2023-03-01T15:40:57.295Z,15.98
2023-03-01T15:43:47.247Z,13.77
2023-03-01T15:46:19.956Z,8.65
2023-03-01T15:48:48.969Z,6.00
2023-03-01T15:51:16.093Z,4.90
2023-03-01T15:53:54.216Z,3.80
2023-03-01T15:56:21.937Z,3.35
2023-03-01T15:58:48.514Z,3.20
2023-03-01T16:01:16.743Z,1.42
2023-03-01T16:03:44.116Z,3.70
2023-03-01T16:06:11.778Z,1.58
2023-03-01T16:08:40.262Z,4.43
2023-03-01T16:11:17.111Z,4.05
2023-03-01T16:13:44.362Z,4.97
2023-03-01T16:16:12.722Z,5.03
2023-03-01T16:18:39.690Z,4.47
2023-03-01T16:21:06.297Z,3.92
2023-03-01T16:23:32.950Z,2.45
2023-03-01T16:26:00.393Z,7.07
2023-03-01T16:28:29.268Z,3.45
2023-03-01T16:30:55.997Z,3.45
2023-03-01T16:33:28.756Z,3.70
2023-03-01T16:36:00.354Z,3.15
2023-03-01T16:38:27.073Z,2.30
2023-03-01T16:40:53.860Z,4.40
2023-03-01T16:43:20.635Z,3.85
2023-03-01T16:45:47.240Z,2.50
2023-03-01T16:48:13.865Z,6.25
2023-03-01T16:50:40.842Z,3.70
2023-03-01T16:53:07.579Z,4.60
2023-03-01T16:55:34.531Z,3.67
2023-03-01T16:58:01.944Z,4.00
2023-03-01T17:00:29.187Z,5.55
2023-03-01T17:02:55.939Z,4.00
2023-03-01T17:05:22.565Z,3.03
2023-03-01T17:07:49.458Z,5.15
2023-03-01T17:10:16.178Z,3.67
2023-03-01T17:12:42.911Z,5.38
2023-03-01T17:15:12.813Z,4.50
2023-03-01T17:17:40.586Z,3.83
2023-03-01T17:20:12.070Z,2.90
2023-03-01T17:22:41.008Z,2.88
2023-03-01T17:25:13.672Z,4.28
2023-03-01T17:27:40.920Z,3.75
2023-03-01T17:30:12.150Z,4.55
2023-03-01T17:32:38.914Z,4.28
2023-03-01T17:35:06.489Z,5.82
2023-03-01T17:37:33.242Z,4.80
2023-03-01T17:40:00.026Z,4.68
2023-03-01T17:42:26.913Z,3.25
2023-03-01T17:44:53.468Z,4.07
2023-03-01T17:47:20.074Z,4.60
2023-03-01T17:49:46.583Z,6.88
2023-03-01T17:52:13.176Z,6.07
2023-03-01T17:54:39.861Z,7.22
2023-03-01T17:57:09.042Z,9.32
2023-03-01T17:59:45.347Z,9.45
2023-03-01T18:02:15.355Z,7.80
2023-03-01T18:04:43.149Z,6.82
2023-03-01T18:07:09.942Z,8.93
2023-03-01T18:09:36.557Z,9.88
2023-03-01T18:12:03.129Z,10.75
2023-03-01T18:14:29.771Z,7.30
2023-03-01T18:16:56.698Z,8.95
2023-03-01T18:19:23.379Z,6.88
2023-03-01T18:21:50.097Z,7.00
2023-03-01T18:24:16.677Z,7.93
2023-03-01T18:26:43.256Z,8.48
2023-03-01T18:29:09.855Z,7.22
2023-03-01T18:31:36.397Z,4.93
2023-03-01T18:34:03.738Z,7.07
2023-03-01T18:36:34.373Z,5.88
2023-03-01T18:39:06.578Z,7.88
2023-03-01T18:41:34.221Z,4.78
2023-03-01T18:44:03.560Z,7.97
2023-03-01T18:46:31.151Z,7.05
2023-03-01T18:48:58.271Z,5.85
2023-03-01T18:51:29.724Z,10.45
2023-03-01T18:53:57.987Z,8.23
2023-03-01T18:56:25.551Z,10.98
2023-03-01T18:58:52.083Z,5.65
2023-03-01T19:01:21.754Z,5.72
2023-03-01T19:03:48.987Z,5.55
2023-03-01T19:06:16.308Z,6.05
2023-03-01T19:08:43.194Z,8.55
2023-03-01T19:11:11.300Z,8.55
2023-03-01T19:13:41.008Z,9.50
2023-03-01T19:16:13.889Z,5.35
2023-03-01T19:18:43.010Z,5.75
2023-03-01T19:21:11.589Z,5.22
2023-03-01T19:23:38.679Z,5.57
2023-03-01T19:26:10.064Z,5.15
2023-03-01T19:28:39.487Z,4.90
2023-03-01T19:31:08.906Z,6.57
2023-03-01T19:33:36.329Z,5.65
2023-03-01T19:36:03.712Z,6.15
2023-03-01T19:38:30.602Z,8.60
2023-03-01T19:40:58.131Z,5.72
2023-03-01T19:43:25.000Z,8.55
2023-03-01T19:45:53.045Z,9.60
2023-03-01T19:48:20.016Z,7.25
2023-03-01T19:50:47.387Z,4.50
2023-03-01T19:53:15.703Z,5.22
2023-03-01T19:55:42.880Z,8.93
2023-03-01T19:58:18.065Z,8.07
2023-03-01T20:00:46.819Z,7.28
2023-03-01T20:03:13.945Z,5.97
2023-03-01T20:05:40.867Z,8.27
2023-03-01T20:08:07.412Z,11.13
2023-03-01T20:10:34.646Z,8.57
2023-03-01T20:13:01.204Z,10.35
2023-03-01T20:15:28.311Z,9.85
2023-03-01T20:17:56.101Z,6.65
2023-03-01T20:20:23.268Z,8.90
2023-03-01T20:22:49.858Z,5.88
2023-03-01T20:25:16.642Z,7.72
2023-03-01T20:27:43.825Z,5.82
2023-03-01T20:30:11.248Z,9.48
2023-03-01T20:32:38.017Z,10.95
2023-03-01T20:35:04.969Z,6.32
2023-03-01T20:37:31.576Z,6.28
2023-03-01T20:39:58.134Z,8.82
2023-03-01T20:42:24.703Z,8.15
2023-03-01T20:44:51.243Z,8.23
2023-03-01T20:47:17.844Z,7.22
2023-03-01T20:49:44.411Z,8.63
2023-03-01T20:52:11.179Z,8.20
2023-03-01T20:54:38.136Z,7.13
2023-03-01T20:57:04.665Z,10.75
2023-03-01T20:59:31.371Z,5.95
2023-03-01T21:01:57.939Z,8.88
2023-03-01T21:04:24.767Z,9.95
2023-03-01T21:06:51.426Z,9.25
2023-03-01T21:09:17.967Z,4.97
2023-03-01T21:11:44.549Z,10.32
2023-03-01T21:14:11.083Z,8.02
2023-03-01T21:16:38.022Z,5.45
2023-03-01T21:19:04.681Z,6.70
2023-03-01T21:21:31.179Z,5.97
2023-03-01T21:23:57.980Z,12.85
2023-03-01T21:26:26.312Z,11.25
2023-03-01T21:28:58.278Z,6.63
2023-03-01T21:31:27.611Z,6.53
2023-03-01T21:34:00.071Z,8.48
2023-03-01T21:36:29.418Z,7.22
2023-03-01T21:38:56.296Z,6.63
2023-03-01T21:41:25.649Z,7.90
2023-03-01T21:43:54.173Z,7.65
2023-03-01T21:46:22.694Z,6.38
2023-03-01T21:48:50.669Z,7.32
2023-03-01T21:51:19.058Z,6.97
2023-03-01T21:53:45.757Z,8.18
2023-03-01T21:56:21.128Z,6.88
2023-03-01T21:58:48.346Z,8.27
2023-03-01T22:01:17.823Z,6.68
2023-03-01T22:03:45.390Z,8.60
2023-03-01T22:06:15.246Z,8.93
2023-03-01T22:08:42.007Z,7.00
2023-03-01T22:11:08.783Z,7.05
2023-03-01T22:13:35.326Z,8.98
2023-03-01T22:16:01.839Z,10.55
2023-03-01T22:18:28.497Z,5.65
2023-03-01T22:20:55.043Z,7.50
2023-03-01T22:23:21.833Z,3.95
2023-03-01T22:25:48.623Z,6.25
2023-03-01T22:28:15.216Z,9.30
2023-03-01T22:30:41.802Z,8.95
2023-03-01T22:33:08.341Z,6.40
2023-03-01T22:35:35.124Z,12.23
2023-03-01T22:38:01.723Z,9.75
2023-03-01T22:40:28.489Z,9.48
2023-03-01T22:42:55.043Z,7.13
2023-03-01T22:45:21.586Z,8.82
2023-03-01T22:47:48.370Z,6.30
2023-03-01T22:50:15.175Z,7.72
2023-03-01T22:52:41.806Z,5.43
2023-03-01T22:55:09.024Z,4.97
2023-03-01T22:57:35.646Z,4.03
2023-03-01T23:00:05.950Z,3.50
2023-03-01T23:02:33.170Z,3.50
2023-03-01T23:04:59.806Z,5.75
2023-03-01T23:07:26.342Z,5.28
2023-03-01T23:09:52.890Z,3.97
2023-03-01T23:12:19.412Z,5.38
2023-03-01T23:14:46.162Z,3.20
2023-03-01T23:17:13.974Z,4.90
2023-03-01T23:19:40.599Z,4.05
2023-03-01T23:22:07.405Z,4.18
2023-03-01T23:24:35.052Z,4.35
2023-03-01T23:27:02.693Z,6.53
2023-03-01T23:29:30.352Z,5.00
2023-03-01T23:31:58.191Z,4.55
2023-03-01T23:34:26.504Z,4.88
2023-03-01T23:36:53.969Z,5.63
2023-03-01T23:39:21.540Z,5.82
2023-03-01T23:41:48.233Z,4.30
2023-03-01T23:44:19.949Z,7.30
2023-03-01T23:46:48.184Z,4.13
2023-03-01T23:49:17.789Z,7.30
2023-03-01T23:51:45.510Z,5.45
2023-03-01T23:54:14.669Z,5.43
2023-03-01T23:56:43.149Z,3.60
2023-03-01T23:59:13.541Z,3.95
